createdAt,value
2018-07-28T00:00:21.747Z,8.87
2018-07-28T00:02:51.427Z,9.27
2018-07-28T00:05:19.969Z,9.23
2018-07-28T00:07:48.728Z,9.17
2018-07-28T00:10:17.444Z,8.90
2018-07-28T00:12:46.876Z,9.23
2018-07-28T00:15:15.562Z,8.83
2018-07-28T00:17:44.307Z,8.20
2018-07-28T00:20:13.709Z,8.63
2018-07-28T00:22:42.263Z,9.13
2018-07-28T00:25:12.182Z,8.90
2018-07-28T00:27:41.183Z,8.47
2018-07-28T00:30:11.678Z,8.43
2018-07-28T00:32:40.612Z,8.30
2018-07-28T00:35:09.561Z,8.10
2018-07-28T00:37:38.467Z,8.73
2018-07-28T00:40:07.850Z,7.67
2018-07-28T00:42:36.782Z,7.53
2018-07-28T00:45:06.406Z,7.83
2018-07-28T00:47:34.956Z,8.30
2018-07-28T00:50:03.757Z,8.53
2018-07-28T00:52:32.391Z,8.47
2018-07-28T00:55:00.948Z,7.57
2018-07-28T00:57:29.698Z,7.83
2018-07-28T00:59:58.249Z,8.67
2018-07-28T01:02:27.153Z,8.23
2018-07-28T01:04:55.737Z,8.40
2018-07-28T01:07:24.261Z,8.37
2018-07-28T01:09:53.709Z,8.53
2018-07-28T01:12:22.619Z,7.97
2018-07-28T01:14:51.885Z,8.20
2018-07-28T01:17:20.552Z,8.00
2018-07-28T01:19:49.129Z,8.03
2018-07-28T01:22:17.970Z,9.33
2018-07-28T01:24:47.172Z,8.67
2018-07-28T01:27:15.711Z,9.30
2018-07-28T01:29:43.910Z,9.13
2018-07-28T01:32:12.530Z,9.50
2018-07-28T01:34:46.156Z,9.00
2018-07-28T01:37:14.751Z,8.47
2018-07-28T01:39:43.434Z,9.63
2018-07-28T01:42:12.152Z,9.87
2018-07-28T01:44:40.789Z,9.77
2018-07-28T01:47:09.331Z,9.90
2018-07-28T01:49:37.828Z,10.43
2018-07-28T01:52:06.569Z,10.37
2018-07-28T01:54:34.795Z,9.77
2018-07-28T01:57:03.620Z,8.80
2018-07-28T01:59:32.171Z,8.07
2018-07-28T02:02:00.746Z,8.13
2018-07-28T02:04:29.483Z,8.57
2018-07-28T02:06:58.010Z,8.30
2018-07-28T02:09:26.924Z,8.47
2018-07-28T02:11:56.617Z,8.50
2018-07-28T02:14:25.173Z,8.63
2018-07-28T02:16:53.695Z,7.57
2018-07-28T02:19:22.221Z,7.80
2018-07-28T02:21:50.781Z,7.90
2018-07-28T02:24:19.343Z,8.53
2018-07-28T02:26:47.867Z,8.03
2018-07-28T02:29:16.497Z,8.17
2018-07-28T02:31:45.112Z,8.70
2018-07-28T02:34:13.656Z,8.83
2018-07-28T02:36:42.410Z,9.60
2018-07-28T02:39:11.976Z,8.40
2018-07-28T02:41:41.244Z,8.53
2018-07-28T02:44:09.930Z,8.43
2018-07-28T02:46:38.976Z,8.70
2018-07-28T02:49:08.327Z,8.30
2018-07-28T02:51:36.881Z,8.60
2018-07-28T02:54:05.111Z,8.23
2018-07-28T02:56:33.649Z,8.60
2018-07-28T02:59:02.236Z,8.57
2018-07-28T03:01:30.773Z,8.10
2018-07-28T03:03:59.650Z,8.53
2018-07-28T03:06:28.245Z,8.30
2018-07-28T03:08:57.076Z,8.63
2018-07-28T03:11:25.635Z,8.03
2018-07-28T03:13:54.243Z,9.30
2018-07-28T03:16:22.828Z,9.07
2018-07-28T03:18:51.439Z,8.63
2018-07-28T03:21:20.519Z,8.47
2018-07-28T03:23:48.729Z,8.13
2018-07-28T03:26:17.222Z,8.47
2018-07-28T03:28:45.842Z,7.90
2018-07-28T03:31:15.208Z,8.50
2018-07-28T03:33:43.776Z,8.67
2018-07-28T03:36:12.313Z,7.87
2018-07-28T03:38:40.841Z,8.47
2018-07-28T03:41:09.406Z,8.13
2018-07-28T03:43:37.973Z,7.77
2018-07-28T03:46:06.823Z,8.70
2018-07-28T03:48:35.403Z,8.33
2018-07-28T03:51:04.476Z,7.77
2018-07-28T03:53:33.042Z,8.20
2018-07-28T03:56:01.608Z,8.27
2018-07-28T03:58:30.139Z,9.10
2018-07-28T04:00:58.692Z,7.70
2018-07-28T04:03:27.254Z,8.57
2018-07-28T04:05:56.092Z,7.93
2018-07-28T04:08:24.676Z,7.33
2018-07-28T04:10:53.215Z,7.77
2018-07-28T04:13:21.763Z,7.30
2018-07-28T04:15:50.362Z,7.53
2018-07-28T04:18:18.895Z,6.70
2018-07-28T04:20:47.791Z,7.33
2018-07-28T04:23:16.384Z,7.43
2018-07-28T04:25:44.976Z,7.50
2018-07-28T04:28:13.557Z,7.53
2018-07-28T04:30:42.272Z,7.67
2018-07-28T04:33:10.930Z,8.03
2018-07-28T04:35:39.432Z,8.10
2018-07-28T04:38:08.852Z,8.07
2018-07-28T04:40:37.396Z,8.03
2018-07-28T04:43:05.940Z,7.63
2018-07-28T04:45:34.582Z,7.73
2018-07-28T04:48:03.123Z,8.33
2018-07-28T04:50:31.742Z,7.77
2018-07-28T04:53:00.255Z,8.73
2018-07-28T04:55:29.062Z,8.57
2018-07-28T04:57:57.607Z,8.37
2018-07-28T05:00:26.176Z,7.90
2018-07-28T05:02:55.000Z,8.53
2018-07-28T05:05:23.751Z,8.33
2018-07-28T05:07:52.420Z,8.63
2018-07-28T05:10:20.910Z,8.37
2018-07-28T05:12:49.539Z,8.77
2018-07-28T05:15:18.062Z,7.57
2018-07-28T05:17:46.675Z,8.50
2018-07-28T05:20:15.205Z,8.07
2018-07-28T05:22:43.803Z,9.37
2018-07-28T05:25:12.944Z,8.60
2018-07-28T05:27:41.458Z,8.87
2018-07-28T05:30:12.597Z,8.77
2018-07-28T05:32:41.173Z,8.70
2018-07-28T05:35:10.856Z,9.00
2018-07-28T05:37:39.643Z,8.93
2018-07-28T05:40:08.251Z,8.73
2018-07-28T05:42:37.026Z,9.73
2018-07-28T05:45:06.523Z,9.03
2018-07-28T05:47:35.108Z,8.50
2018-07-28T05:50:04.167Z,9.13
2018-07-28T05:52:32.720Z,8.97
2018-07-28T05:55:02.129Z,9.00
2018-07-28T05:57:30.659Z,9.00
2018-07-28T05:59:59.257Z,8.90
2018-07-28T06:02:28.091Z,8.73
2018-07-28T06:04:57.340Z,7.73
2018-07-28T06:07:25.988Z,7.27
2018-07-28T06:09:54.813Z,8.13
2018-07-28T06:12:23.709Z,7.80
2018-07-28T06:14:53.133Z,7.27
2018-07-28T06:17:22.058Z,7.37
2018-07-28T06:19:51.087Z,8.03
2018-07-28T06:22:19.658Z,8.03
2018-07-28T06:24:48.208Z,7.67
2018-07-28T06:27:18.568Z,7.77
2018-07-28T06:29:47.119Z,7.43
2018-07-28T06:32:15.672Z,7.53
2018-07-28T06:34:44.333Z,7.77
2018-07-28T06:37:12.994Z,7.63
2018-07-28T06:39:41.812Z,7.37
2018-07-28T06:42:10.853Z,7.77
2018-07-28T06:44:39.578Z,7.40
2018-07-28T06:47:08.242Z,6.90
2018-07-28T06:49:36.906Z,7.10
2018-07-28T06:52:05.987Z,6.60
2018-07-28T06:54:34.611Z,6.60
2018-07-28T06:57:03.944Z,6.27
2018-07-28T06:59:32.599Z,6.20
2018-07-28T07:02:01.186Z,6.60
2018-07-28T07:04:29.871Z,6.57
2018-07-28T07:06:58.853Z,6.67
2018-07-28T07:09:27.449Z,7.07
2018-07-28T07:11:56.615Z,6.97
2018-07-28T07:14:25.159Z,5.80
2018-07-28T07:16:53.962Z,6.20
2018-07-28T07:19:22.928Z,6.80
2018-07-28T07:21:52.264Z,5.83
2018-07-28T07:24:20.520Z,5.83
2018-07-28T07:26:49.528Z,5.57
2018-07-28T07:29:19.889Z,5.90
2018-07-28T07:31:48.887Z,5.53
2018-07-28T07:34:17.459Z,4.77
2018-07-28T07:36:46.095Z,5.20
2018-07-28T07:39:14.706Z,5.40
2018-07-28T07:41:43.335Z,5.03
2018-07-28T07:44:12.224Z,4.70
2018-07-28T07:46:41.837Z,4.97
2018-07-28T07:49:10.400Z,5.03
2018-07-28T07:51:38.959Z,5.33
2018-07-28T07:54:09.385Z,4.40
2018-07-28T07:56:38.452Z,4.90
2018-07-28T07:59:07.037Z,5.43
2018-07-28T08:01:35.709Z,4.80
2018-07-28T08:04:04.572Z,4.70
2018-07-28T08:06:33.179Z,4.20
2018-07-28T08:09:01.890Z,4.87
2018-07-28T08:11:30.622Z,4.80
2018-07-28T08:14:00.349Z,4.80
2018-07-28T08:16:28.975Z,5.00
2018-07-28T08:18:57.887Z,4.80
2018-07-28T08:21:27.091Z,5.10
2018-07-28T08:23:55.643Z,5.10
2018-07-28T08:26:25.023Z,5.43
2018-07-28T08:28:53.709Z,5.20
2018-07-28T08:31:22.669Z,4.93
2018-07-28T08:33:51.371Z,5.40
2018-07-28T08:36:20.376Z,5.20
2018-07-28T08:38:49.117Z,5.00
2018-07-28T08:41:18.172Z,5.83
2018-07-28T08:43:46.769Z,4.70
2018-07-28T08:46:16.152Z,4.80
2018-07-28T08:48:47.166Z,4.70
2018-07-28T08:51:16.430Z,5.10
2018-07-28T08:53:45.634Z,4.87
2018-07-28T08:56:14.181Z,4.83
2018-07-28T08:58:43.015Z,4.27
2018-07-28T09:01:12.244Z,5.20
2018-07-28T09:03:41.515Z,4.93
2018-07-28T09:06:10.629Z,4.73
2018-07-28T09:08:39.320Z,5.07
2018-07-28T09:11:08.754Z,5.47
2018-07-28T09:13:38.675Z,4.97
2018-07-28T09:16:07.728Z,5.03
2018-07-28T09:18:36.327Z,5.37
2018-07-28T09:21:05.508Z,5.10
2018-07-28T09:23:33.854Z,5.50
2018-07-28T09:26:02.641Z,6.23
2018-07-28T09:28:32.255Z,5.40
2018-07-28T09:31:04.164Z,5.20
2018-07-28T09:33:34.639Z,5.67
2018-07-28T09:36:04.023Z,5.40
2018-07-28T09:38:35.669Z,5.80
2018-07-28T09:41:05.860Z,5.80
2018-07-28T09:43:35.129Z,5.10
2018-07-28T09:46:04.418Z,6.10
2018-07-28T09:48:34.369Z,5.30
2018-07-28T09:51:03.302Z,5.80
2018-07-28T09:53:33.225Z,5.93
2018-07-28T09:56:02.770Z,6.07
2018-07-28T09:58:31.383Z,5.70
2018-07-28T10:01:05.005Z,6.50
2018-07-28T10:03:34.182Z,6.40
2018-07-28T10:06:03.580Z,5.57
2018-07-28T10:08:33.662Z,6.60
2018-07-28T10:11:02.285Z,6.00
2018-07-28T10:13:33.061Z,6.30
2018-07-28T10:16:02.895Z,6.43
2018-07-28T10:18:32.349Z,6.00
2018-07-28T10:21:01.084Z,5.90
2018-07-28T10:23:30.104Z,6.43
2018-07-28T10:25:59.429Z,6.10
2018-07-28T10:28:28.137Z,5.83
2018-07-28T10:30:57.671Z,5.83
2018-07-28T10:33:26.407Z,5.73
2018-07-28T10:35:55.060Z,5.57
2018-07-28T10:38:23.763Z,5.43
2018-07-28T10:40:52.432Z,5.27
2018-07-28T10:43:21.189Z,5.27
2018-07-28T10:45:49.698Z,5.93
2018-07-28T10:48:18.205Z,5.50
2018-07-28T10:50:47.023Z,4.83
2018-07-28T10:53:15.581Z,4.23
2018-07-28T10:55:44.311Z,4.07
2018-07-28T10:58:14.253Z,4.10
2018-07-28T11:00:42.786Z,4.37
2018-07-28T11:03:11.364Z,4.40
2018-07-28T11:05:41.342Z,4.47
2018-07-28T11:08:09.977Z,4.67
2018-07-28T11:10:38.868Z,4.50
2018-07-28T11:13:07.682Z,4.97
2018-07-28T11:15:36.752Z,4.77
2018-07-28T11:18:05.782Z,4.57
2018-07-28T11:20:34.518Z,4.37
2018-07-28T11:23:03.140Z,4.63
2018-07-28T11:25:31.809Z,4.27
2018-07-28T11:28:00.550Z,4.13
2018-07-28T11:30:29.371Z,4.40
2018-07-28T11:33:09.128Z,4.10
2018-07-28T11:35:49.488Z,4.50
2018-07-28T11:38:29.374Z,3.90
2018-07-28T11:41:09.684Z,4.47
2018-07-28T11:43:49.515Z,4.20
2018-07-28T11:46:18.253Z,4.30
2018-07-28T11:48:47.245Z,4.43
2018-07-28T11:51:16.219Z,3.90
2018-07-28T11:53:45.725Z,4.20
2018-07-28T11:56:14.463Z,4.43
2018-07-28T11:58:43.399Z,4.00
2018-07-28T12:01:12.577Z,4.53
2018-07-28T12:03:41.837Z,4.17
2018-07-28T12:06:10.351Z,4.60
2018-07-28T12:08:38.554Z,4.50
2018-07-28T12:11:07.550Z,4.60
2018-07-28T12:13:36.284Z,3.57
2018-07-28T12:16:05.154Z,4.37
2018-07-28T12:18:33.783Z,3.67
2018-07-28T12:21:02.440Z,3.97
2018-07-28T12:23:31.199Z,3.70
2018-07-28T12:26:00.309Z,4.23
2018-07-28T12:28:28.971Z,3.53
2018-07-28T12:30:57.823Z,3.40
2018-07-28T12:33:26.070Z,3.87
2018-07-28T12:35:54.996Z,3.20
2018-07-28T12:38:23.668Z,3.33
2018-07-28T12:40:53.157Z,3.23
2018-07-28T12:43:21.783Z,3.83
2018-07-28T12:45:51.259Z,2.93
2018-07-28T12:49:49.606Z,3.37
2018-07-28T12:52:18.182Z,2.73
2018-07-28T12:54:46.791Z,2.77
2018-07-28T12:57:15.689Z,2.90
2018-07-28T12:59:44.620Z,2.40
2018-07-28T13:02:13.036Z,2.70
2018-07-28T13:04:41.860Z,2.83
2018-07-28T13:07:10.711Z,2.73
2018-07-28T13:09:39.487Z,2.63
2018-07-28T13:12:08.196Z,2.37
2018-07-28T13:14:37.297Z,2.90
2018-07-28T13:17:05.876Z,2.60
2018-07-28T13:19:34.555Z,2.67
2018-07-28T13:22:03.476Z,3.03
2018-07-28T13:24:32.463Z,3.50
2018-07-28T13:27:01.496Z,3.20
2018-07-28T13:29:30.276Z,3.33
2018-07-28T13:31:58.966Z,3.50
2018-07-28T13:34:27.547Z,3.80
2018-07-28T13:36:56.089Z,3.73
2018-07-28T13:39:24.655Z,3.67
2018-07-28T13:41:53.596Z,3.80
2018-07-28T13:44:22.208Z,4.00
2018-07-28T13:46:50.728Z,3.83
2018-07-28T13:49:20.200Z,3.60
2018-07-28T13:51:48.739Z,4.17
2018-07-28T13:54:17.943Z,4.60
2018-07-28T13:56:46.531Z,4.70
2018-07-28T13:59:15.195Z,4.10
2018-07-28T14:01:43.955Z,4.17
2018-07-28T14:04:12.582Z,3.00
2018-07-28T14:06:41.125Z,3.10
2018-07-28T14:09:10.336Z,3.77
2018-07-28T14:11:39.215Z,3.40
2018-07-28T14:14:08.737Z,3.60
2018-07-28T14:16:37.293Z,4.23
2018-07-28T14:19:06.070Z,4.03
2018-07-28T14:21:34.635Z,4.50
2018-07-28T14:24:02.923Z,4.70
2018-07-28T14:26:31.514Z,4.30
2018-07-28T14:29:00.907Z,4.33
2018-07-28T14:31:29.630Z,4.50
2018-07-28T14:33:59.608Z,4.57
2018-07-28T14:36:28.122Z,4.30
2018-07-28T14:38:56.637Z,4.47
2018-07-28T14:41:25.219Z,4.53
2018-07-28T14:43:54.104Z,4.90
2018-07-28T14:46:22.724Z,4.37
2018-07-28T14:48:51.243Z,3.70
2018-07-28T14:51:19.865Z,4.60
2018-07-28T14:53:48.461Z,3.97
2018-07-28T14:56:17.044Z,4.20
2018-07-28T14:58:45.944Z,4.30
2018-07-28T15:01:14.607Z,3.97
2018-07-28T15:03:43.175Z,4.13
2018-07-28T15:06:11.881Z,3.67
2018-07-28T15:08:40.548Z,4.10
2018-07-28T15:11:09.142Z,4.30
2018-07-28T15:13:37.915Z,4.37
2018-07-28T15:16:07.210Z,4.30
2018-07-28T15:18:35.804Z,4.50
2018-07-28T15:21:04.778Z,5.00
2018-07-28T15:23:33.370Z,4.90
2018-07-28T15:26:02.023Z,5.50
2018-07-28T15:28:30.332Z,4.67
2018-07-28T15:30:58.955Z,5.37
2018-07-28T15:33:27.516Z,5.27
2018-07-28T15:35:56.165Z,5.50
2018-07-28T15:38:24.710Z,5.73
2018-07-28T15:40:53.373Z,5.23
2018-07-28T15:43:22.192Z,5.37
2018-07-28T15:45:50.915Z,5.07
2018-07-28T15:48:19.565Z,5.73
2018-07-28T15:50:48.193Z,5.47
2018-07-28T15:53:17.030Z,5.63
2018-07-28T15:55:45.681Z,5.87
2018-07-28T15:58:14.384Z,5.73
2018-07-28T16:00:43.089Z,5.50
2018-07-28T16:03:12.216Z,6.00
2018-07-28T16:05:40.706Z,5.50
2018-07-28T16:08:09.468Z,5.87
2018-07-28T16:10:38.240Z,5.93
2018-07-28T16:13:07.063Z,6.10
2018-07-28T16:15:35.674Z,5.63
2018-07-28T16:18:04.275Z,5.53
2018-07-28T16:20:32.823Z,5.00
2018-07-28T16:23:01.708Z,6.27
2018-07-28T16:25:30.773Z,5.77
2018-07-28T16:27:59.886Z,5.33
2018-07-28T16:30:28.424Z,5.87
2018-07-28T16:32:57.209Z,5.60
2018-07-28T16:35:25.907Z,5.50
2018-07-28T16:37:54.680Z,5.03
2018-07-28T16:40:23.251Z,5.20
2018-07-28T16:42:51.886Z,5.00
2018-07-28T16:45:20.784Z,4.90
2018-07-28T16:47:49.921Z,4.90
2018-07-28T16:50:18.706Z,5.20
2018-07-28T16:52:47.187Z,4.90
2018-07-28T16:55:16.052Z,5.10
2018-07-28T16:57:44.584Z,5.03
2018-07-28T17:00:13.352Z,5.57
2018-07-28T17:02:43.014Z,4.73
2018-07-28T17:05:12.034Z,5.30
2018-07-28T17:07:40.580Z,4.73
2018-07-28T17:10:09.735Z,5.40
2018-07-28T17:12:38.439Z,5.73
2018-07-28T17:15:07.915Z,5.30
2018-07-28T17:17:37.104Z,5.20
2018-07-28T17:20:06.560Z,5.00
2018-07-28T17:22:35.286Z,5.70
2018-07-28T17:25:03.999Z,5.73
2018-07-28T17:27:32.684Z,5.47
2018-07-28T17:30:01.944Z,5.37
2018-07-28T17:32:31.255Z,5.47
2018-07-28T17:35:00.084Z,5.87
2018-07-28T17:37:28.747Z,5.50
2018-07-28T17:39:57.521Z,5.57
2018-07-28T17:42:26.446Z,5.20
2018-07-28T17:44:55.766Z,5.73
2018-07-28T17:47:24.445Z,5.80
2018-07-28T17:49:53.000Z,5.80
2018-07-28T17:52:21.604Z,6.07
2018-07-28T17:54:50.375Z,6.30
2018-07-28T17:57:19.000Z,6.23
2018-07-28T17:59:47.648Z,5.67
2018-07-28T18:02:16.503Z,6.57
2018-07-28T18:04:45.041Z,6.10
2018-07-28T18:07:13.738Z,6.20
2018-07-28T18:09:43.320Z,5.97
2018-07-28T18:12:11.806Z,6.17
2018-07-28T18:14:41.051Z,5.90
2018-07-28T18:17:09.691Z,5.30
2018-07-28T18:19:38.486Z,6.03
2018-07-28T18:22:07.275Z,6.23
2018-07-28T18:24:36.862Z,6.40
2018-07-28T18:27:05.540Z,6.10
2018-07-28T18:29:34.339Z,6.27
2018-07-28T18:32:03.201Z,5.67
2018-07-28T18:34:31.828Z,6.47
2018-07-28T18:37:00.724Z,6.53
2018-07-28T18:39:29.405Z,6.73
2018-07-28T18:41:58.197Z,6.40
2018-07-28T18:44:26.822Z,6.50
2018-07-28T18:46:55.527Z,6.13
2018-07-28T18:49:24.172Z,6.20
2018-07-28T18:51:53.776Z,6.03
2018-07-28T18:54:23.333Z,6.60
2018-07-28T18:56:52.427Z,6.40
2018-07-28T18:59:21.265Z,6.37
2018-07-28T19:01:51.095Z,7.37
2018-07-28T19:04:20.668Z,6.87
2018-07-28T19:06:49.892Z,6.97
2018-07-28T19:09:23.777Z,6.63
2018-07-28T19:11:53.689Z,6.70
2018-07-28T19:14:28.183Z,7.20
2018-07-28T19:16:57.271Z,6.67
2018-07-28T19:19:25.907Z,7.20
2018-07-28T19:21:54.740Z,6.47
2018-07-28T19:24:23.679Z,7.07
2018-07-28T19:26:52.887Z,6.90
2018-07-28T19:29:27.207Z,6.97
2018-07-28T19:31:56.449Z,6.70
2018-07-28T19:34:25.711Z,6.30
2018-07-28T19:37:00.081Z,6.90
2018-07-28T19:39:28.928Z,6.50
2018-07-28T19:42:03.915Z,6.77
2018-07-28T19:44:32.432Z,6.77
2018-07-28T19:47:01.109Z,6.70
2018-07-28T19:49:30.638Z,7.53
2018-07-28T19:51:59.526Z,6.60
2018-07-28T19:54:28.296Z,6.67
2018-07-28T19:56:57.412Z,6.63
2018-07-28T19:59:27.508Z,6.63
2018-07-28T20:01:56.111Z,6.33
2018-07-28T20:04:24.614Z,7.40
2018-07-28T20:06:53.275Z,6.57
2018-07-28T20:09:22.056Z,7.20
2018-07-28T20:11:51.256Z,6.73
2018-07-28T20:14:19.743Z,6.40
2018-07-28T20:16:48.554Z,6.93
2018-07-28T20:19:17.118Z,6.60
2018-07-28T20:21:45.796Z,6.47
2018-07-28T20:24:14.552Z,6.67
2018-07-28T20:26:43.222Z,6.63
2018-07-28T20:29:11.983Z,7.23
2018-07-28T20:31:40.562Z,6.37
2018-07-28T20:34:09.074Z,6.63
2018-07-28T20:36:37.738Z,6.73
2018-07-28T20:39:08.797Z,6.50
2018-07-28T20:41:37.380Z,6.87
2018-07-28T20:44:06.405Z,6.70
2018-07-28T20:46:35.025Z,6.90
2018-07-28T20:49:03.757Z,6.63
2018-07-28T20:51:32.458Z,6.90
2018-07-28T20:54:01.194Z,6.53
2018-07-28T20:56:30.273Z,7.70
2018-07-28T20:58:59.069Z,6.83
2018-07-28T21:01:27.611Z,6.53
2018-07-28T21:03:56.496Z,7.20
2018-07-28T21:06:25.208Z,7.17
2018-07-28T21:08:53.763Z,6.87
2018-07-28T21:11:22.344Z,7.33
2018-07-28T21:13:50.925Z,7.23
2018-07-28T21:16:19.668Z,7.23
2018-07-28T21:18:48.166Z,7.27
2018-07-28T21:21:16.739Z,6.77
2018-07-28T21:23:45.624Z,7.17
2018-07-28T21:26:14.230Z,6.83
2018-07-28T21:28:42.857Z,7.70
2018-07-28T21:31:11.440Z,7.10
2018-07-28T21:33:40.239Z,7.47
2018-07-28T21:36:08.695Z,6.60
2018-07-28T21:38:37.431Z,6.70
2018-07-28T21:41:06.495Z,8.47
2018-07-28T21:43:36.986Z,9.00
2018-07-28T21:46:05.748Z,8.73
2018-07-28T21:48:35.332Z,7.93
2018-07-28T21:51:03.913Z,8.13
2018-07-28T21:53:32.438Z,7.03
2018-07-28T21:56:02.130Z,7.57
2018-07-28T21:58:30.711Z,7.97
2018-07-28T22:01:07.212Z,7.37
2018-07-28T22:03:36.379Z,7.67
2018-07-28T22:06:05.223Z,7.73
2018-07-28T22:08:33.780Z,8.67
2018-07-28T22:11:02.326Z,7.80
2018-07-28T22:13:33.627Z,7.37
2018-07-28T22:16:03.439Z,7.97
2018-07-28T22:18:31.964Z,7.63
2018-07-28T22:21:00.804Z,8.63
2018-07-28T22:23:29.047Z,7.90
2018-07-28T22:25:57.922Z,8.00
2018-07-28T22:28:26.484Z,7.40
2018-07-28T22:30:55.045Z,8.67
2018-07-28T22:33:23.867Z,7.43
2018-07-28T22:35:52.496Z,8.17
2018-07-28T22:38:21.060Z,8.23
2018-07-28T22:40:49.563Z,8.23
2018-07-28T22:43:18.051Z,7.73
2018-07-28T22:45:46.608Z,8.80
2018-07-28T22:48:15.116Z,8.13
2018-07-28T22:50:43.803Z,7.87
2018-07-28T22:53:11.956Z,8.03
2018-07-28T22:55:40.653Z,7.73
2018-07-28T22:58:09.312Z,7.70
2018-07-28T23:00:38.071Z,7.77
2018-07-28T23:03:06.698Z,8.30
2018-07-28T23:05:35.235Z,7.43
2018-07-28T23:08:03.806Z,8.10
2018-07-28T23:10:32.380Z,7.83
2018-07-28T23:13:01.119Z,7.67
2018-07-28T23:15:30.267Z,8.37
2018-07-28T23:17:58.800Z,8.30
2018-07-28T23:20:27.351Z,7.93
2018-07-28T23:22:55.863Z,8.40
2018-07-28T23:25:24.999Z,8.60
2018-07-28T23:27:53.559Z,8.63
2018-07-28T23:30:22.152Z,8.90
2018-07-28T23:32:50.714Z,8.20
2018-07-28T23:35:19.336Z,7.67
2018-07-28T23:37:48.019Z,7.80
2018-07-28T23:40:16.811Z,8.77
2018-07-28T23:42:45.773Z,8.60
2018-07-28T23:45:14.360Z,8.47
2018-07-28T23:47:43.047Z,8.10
2018-07-28T23:50:11.621Z,8.90
2018-07-28T23:52:40.144Z,8.03
2018-07-28T23:55:08.836Z,8.30
2018-07-28T23:57:37.428Z,8.50
